Time;durP1;ratioP1;P1;durP2;ratioP2;P2;SDS_P1;SDS_P2;PMS_P1;PMS_P2;Temp;Humidity;BMP_temperature;BMP_pressure;BME280_temperature;BME280_humidity;BME280_pressure;Samples;Min_cycle;Max_cycle;Signal;HPM_P1;HPM_P2
2023/04/27 00:00:09;;;;;;;6.17;2.70;;;6.00;78.00;;;;;;5077697;28;20054;-73
2023/04/27 00:02:37;;;;;;;5.17;2.37;;;5.90;78.10;;;;;;5079028;28;20542;-73
2023/04/27 00:05:04;;;;;;;5.63;2.47;;;5.90;78.20;;;;;;5079006;28;20028;-73
2023/04/27 00:07:30;;;;;;;7.33;2.70;;;5.90;78.30;;;;;;5079090;28;20176;-73
2023/04/27 00:09:56;;;;;;;6.00;2.73;;;5.80;78.40;;;;;;5077823;28;20384;-74
2023/04/27 00:12:22;;;;;;;9.60;3.13;;;5.80;78.50;;;;;;5077611;28;20040;-73
2023/04/27 00:14:47;;;;;;;7.33;2.77;;;5.80;78.70;;;;;;5078815;28;20466;-73
2023/04/27 00:17:13;;;;;;;4.97;2.53;;;5.80;78.80;;;;;;5078892;28;20035;-73
2023/04/27 00:19:40;;;;;;;9.70;3.03;;;5.70;78.90;;;;;;5078935;28;20060;-73
2023/04/27 00:22:06;;;;;;;6.80;3.20;;;5.70;79.00;;;;;;5078595;28;20041;-74
2023/04/27 00:24:32;;;;;;;6.13;2.93;;;5.70;79.10;;;;;;5078807;28;20021;-73
2023/04/27 00:26:58;;;;;;;6.97;2.77;;;5.60;79.20;;;;;;5078845;28;20039;-73
2023/04/27 00:29:23;;;;;;;8.43;3.43;;;5.60;79.30;;;;;;5076709;28;20032;-73
2023/04/27 00:31:49;;;;;;;7.33;3.37;;;5.60;79.40;;;;;;5074518;28;20150;-74
2023/04/27 00:34:15;;;;;;;6.87;3.17;;;5.60;79.50;;;;;;5075395;28;20111;-73
2023/04/27 00:36:41;;;;;;;6.00;2.90;;;5.50;79.60;;;;;;5075561;28;20052;-73
2023/04/27 00:39:06;;;;;;;6.93;3.43;;;5.50;79.80;;;;;;5075437;28;20025;-73
2023/04/27 00:41:35;;;;;;;10.43;3.30;;;5.50;79.90;;;;;;5075530;28;20097;-73
2023/04/27 00:44:01;;;;;;;11.77;3.67;;;5.50;80.10;;;;;;5075291;28;20036;-74
2023/04/27 00:46:28;;;;;;;6.77;2.73;;;5.40;80.20;;;;;;5073973;28;20024;-73
2023/04/27 00:48:55;;;;;;;8.13;3.33;;;5.40;80.30;;;;;;5075167;28;20055;-73
2023/04/27 00:51:21;;;;;;;7.10;3.27;;;5.30;80.50;;;;;;5073957;28;20075;-74
2023/04/27 00:53:47;;;;;;;7.73;3.50;;;5.30;80.70;;;;;;5075073;28;20492;-74
2023/04/27 00:56:13;;;;;;;5.60;2.80;;;5.30;80.90;;;;;;5075047;28;20099;-74
2023/04/27 00:58:38;;;;;;;9.43;3.37;;;5.30;81.20;;;;;;5075041;28;20051;-73
2023/04/27 01:01:04;;;;;;;8.27;3.03;;;5.30;81.40;;;;;;5075010;28;20025;-73
2023/04/27 01:03:31;;;;;;;9.70;3.70;;;5.20;81.50;;;;;;5073890;28;20040;-73
2023/04/27 01:06:00;;;;;;;8.17;3.77;;;5.20;81.70;;;;;;5073712;28;20035;-73
2023/04/27 01:08:26;;;;;;;12.17;4.07;;;5.20;81.90;;;;;;5074943;28;20049;-73
2023/04/27 01:10:52;;;;;;;7.13;3.07;;;5.30;82.10;;;;;;5074817;28;20036;-74
2023/04/27 01:13:18;;;;;;;7.40;3.97;;;5.20;82.50;;;;;;5074862;28;20366;-73
2023/04/27 01:15:43;;;;;;;5.80;2.90;;;5.20;82.40;;;;;;5074863;28;20017;-73
2023/04/27 01:18:09;;;;;;;5.63;3.20;;;5.10;82.50;;;;;;5074827;28;20097;-74
2023/04/27 01:20:35;;;;;;;8.20;2.87;;;5.00;82.50;;;;;;5073350;28;20036;-74
2023/04/27 01:23:00;;;;;;;6.87;3.63;;;5.10;82.70;;;;;;5074580;28;20017;-73
2023/04/27 01:25:26;;;;;;;7.57;3.10;;;5.00;82.80;;;;;;5074616;28;20051;-73
2023/04/27 01:27:53;;;;;;;5.47;2.87;;;5.00;82.90;;;;;;5074614;28;20059;-73
2023/04/27 01:30:18;;;;;;;8.27;2.93;;;4.80;82.90;;;;;;5074666;28;20032;-74
2023/04/27 01:32:44;;;;;;;7.73;3.17;;;4.90;83.20;;;;;;5073469;28;20032;-73
2023/04/27 01:35:10;;;;;;;7.47;3.63;;;5.00;83.40;;;;;;5074186;28;20031;-73
2023/04/27 01:37:36;;;;;;;5.97;3.50;;;4.90;83.70;;;;;;5074369;28;20024;-73
2023/04/27 01:40:04;;;;;;;9.10;3.10;;;4.90;84.00;;;;;;5074151;28;20029;-74
2023/04/27 01:42:30;;;;;;;8.57;3.33;;;4.80;84.20;;;;;;5074290;28;20082;-73
2023/04/27 01:44:55;;;;;;;7.80;2.97;;;4.80;84.40;;;;;;5074102;28;20028;-74
2023/04/27 01:47:21;;;;;;;7.70;3.23;;;4.80;84.70;;;;;;5074106;28;20033;-73
2023/04/27 01:49:46;;;;;;;8.93;3.13;;;4.80;85.00;;;;;;5072870;28;20111;-73
2023/04/27 01:52:12;;;;;;;7.57;3.30;;;4.70;85.20;;;;;;5073830;28;20038;-74
2023/04/27 01:54:38;;;;;;;5.67;2.80;;;4.80;85.40;;;;;;5073784;28;20021;-74
2023/04/27 01:57:03;;;;;;;6.70;3.07;;;4.70;86.30;;;;;;5073770;28;20054;-73
2023/04/27 01:59:29;;;;;;;6.47;3.40;;;4.70;85.80;;;;;;5073924;28;20025;-74
2023/04/27 02:01:55;;;;;;;8.43;3.13;;;4.60;86.00;;;;;;5074064;28;20357;-73
2023/04/27 02:04:21;;;;;;;8.30;3.53;;;4.60;86.20;;;;;;5073718;28;20025;-74
2023/04/27 02:06:46;;;;;;;8.13;3.43;;;4.60;86.50;;;;;;5073780;28;20020;-74
2023/04/27 02:09:12;;;;;;;7.83;3.87;;;4.70;86.90;;;;;;5073581;28;20024;-74
2023/04/27 02:11:38;;;;;;;6.70;3.43;;;4.60;87.10;;;;;;5072408;28;20020;-74
2023/04/27 02:14:03;;;;;;;8.50;3.67;;;4.70;87.30;;;;;;5072368;28;20500;-74
2023/04/27 02:16:29;;;;;;;9.93;3.20;;;4.70;87.40;;;;;;5073682;28;20028;-74
2023/04/27 02:18:55;;;;;;;6.77;3.53;;;4.60;87.30;;;;;;5073613;28;20183;-73
2023/04/27 02:21:21;;;;;;;9.10;3.63;;;4.60;87.30;;;;;;5071993;28;20047;-73
2023/04/27 02:23:46;;;;;;;7.73;4.03;;;4.50;87.40;;;;;;5073458;28;20038;-73
2023/04/27 02:26:19;;;;;;;8.40;3.53;;;4.50;87.50;;;;;;5073548;28;20104;-74
2023/04/27 02:28:49;;;;;;;9.47;3.83;;;4.60;87.60;;;;;;5073512;28;20032;-73
2023/04/27 02:31:15;;;;;;;8.13;3.80;;;4.50;87.70;;;;;;5073325;28;20365;-73
2023/04/27 02:33:40;;;;;;;8.97;3.77;;;4.50;87.70;;;;;;5073117;28;20046;-74
2023/04/27 02:36:07;;;;;;;6.87;3.40;;;4.50;87.70;;;;;;5073316;28;20040;-73
2023/04/27 02:38:33;;;;;;;7.23;3.70;;;4.40;87.70;;;;;;5071912;28;20021;-73
2023/04/27 02:40:59;;;;;;;5.77;2.87;;;4.50;88.10;;;;;;5073216;28;20062;-74
2023/04/27 02:43:24;;;;;;;10.10;2.93;;;4.40;87.90;;;;;;5073150;28;20103;-73
2023/04/27 02:45:50;;;;;;;7.70;3.53;;;4.40;88.10;;;;;;5073120;28;20029;-73
2023/04/27 02:48:15;;;;;;;9.70;4.10;;;4.20;88.10;;;;;;5073237;28;20032;-73
2023/04/27 02:50:42;;;;;;;10.40;3.80;;;4.30;88.30;;;;;;5073082;28;20508;-73
2023/04/27 02:53:08;;;;;;;9.57;3.17;;;4.30;89.00;;;;;;5072420;28;20020;-73
2023/04/27 02:55:34;;;;;;;10.07;3.57;;;4.30;88.60;;;;;;5072802;28;20492;-73
2023/04/27 02:58:00;;;;;;;11.07;3.73;;;4.20;88.60;;;;;;5072808;28;20046;-73
2023/04/27 03:00:26;;;;;;;5.67;3.03;;;4.20;88.70;;;;;;5071717;28;20388;-73
2023/04/27 03:02:52;;;;;;;6.87;3.67;;;4.20;88.80;;;;;;5072831;28;20020;-74
2023/04/27 03:05:17;;;;;;;8.20;3.10;;;4.20;89.10;;;;;;5072773;28;20048;-74
2023/04/27 03:07:43;;;;;;;8.73;3.70;;;4.10;89.20;;;;;;5072764;28;20491;-73
2023/04/27 03:10:09;;;;;;;7.80;3.20;;;4.10;89.40;;;;;;5072735;28;20021;-73
2023/04/27 03:12:35;;;;;;;6.90;3.50;;;4.10;89.70;;;;;;5072814;28;20027;-73
2023/04/27 03:15:01;;;;;;;6.53;3.03;;;4.10;89.90;;;;;;5072701;28;20344;-73
2023/04/27 03:17:27;;;;;;;8.57;3.87;;;4.00;90.00;;;;;;5072805;28;20096;-74
2023/04/27 03:19:53;;;;;;;6.03;3.10;;;4.00;90.00;;;;;;5072856;28;20032;-73
2023/04/27 03:22:18;;;;;;;7.23;3.30;;;4.00;90.10;;;;;;5072443;28;20234;-73
2023/04/27 03:24:44;;;;;;;8.60;3.63;;;4.00;90.20;;;;;;5072770;28;20048;-73
2023/04/27 03:27:10;;;;;;;8.40;3.30;;;3.90;90.20;;;;;;5072764;28;20028;-73
2023/04/27 03:29:36;;;;;;;11.20;3.60;;;4.10;90.30;;;;;;5072673;28;20052;-73
2023/04/27 03:32:03;;;;;;;7.87;3.80;;;4.00;90.30;;;;;;5072573;28;20025;-73
2023/04/27 03:34:29;;;;;;;6.60;3.60;;;3.90;90.30;;;;;;5072683;28;20021;-73
2023/04/27 03:36:55;;;;;;;7.63;3.40;;;3.90;90.40;;;;;;5072663;28;20017;-73
2023/04/27 03:39:20;;;;;;;8.70;3.70;;;3.80;90.40;;;;;;5072564;28;20483;-73
2023/04/27 03:41:46;;;;;;;8.70;3.63;;;3.90;90.50;;;;;;5072571;28;20473;-73
2023/04/27 03:44:12;;;;;;;8.23;3.70;;;3.80;90.60;;;;;;5072461;28;20042;-73
2023/04/27 03:46:37;;;;;;;7.00;3.60;;;3.70;90.70;;;;;;5072544;28;20358;-74
2023/04/27 03:49:03;;;;;;;7.03;3.40;;;3.80;90.80;;;;;;5072357;28;20113;-73
2023/04/27 03:51:31;;;;;;;5.87;3.07;;;3.80;90.90;;;;;;5072486;28;20539;-74
2023/04/27 03:53:57;;;;;;;7.87;3.47;;;3.90;91.10;;;;;;5072533;28;20431;-73
2023/04/27 03:56:22;;;;;;;9.70;3.03;;;3.70;91.10;;;;;;5072327;28;20035;-73
2023/04/27 03:58:48;;;;;;;8.77;3.53;;;3.70;91.10;;;;;;5072389;28;20048;-73
2023/04/27 04:01:15;;;;;;;7.50;3.77;;;3.70;91.10;;;;;;5071045;28;20483;-73
2023/04/27 04:03:41;;;;;;;8.73;3.27;;;3.80;91.20;;;;;;5072410;28;20028;-73
2023/04/27 04:06:07;;;;;;;7.83;3.13;;;3.70;91.30;;;;;;5074999;28;20086;-73
2023/04/27 04:08:33;;;;;;;7.53;3.93;;;3.60;91.30;;;;;;5076033;28;20029;-73
2023/04/27 04:10:59;;;;;;;8.27;4.03;;;3.70;91.40;;;;;;5062148;28;20039;-73
2023/04/27 04:13:25;;;;;;;7.83;3.73;;;3.70;91.50;;;;;;5060855;28;20048;-73
2023/04/27 04:16:05;;;;;;;6.50;2.83;;;3.60;91.60;;;;;;5066718;28;20063;-73
2023/04/27 04:18:31;;;;;;;9.43;3.80;;;3.60;91.70;;;;;;5071486;28;20028;-73
2023/04/27 04:20:57;;;;;;;6.63;3.43;;;3.60;91.80;;;;;;5066453;28;20029;-73
2023/04/27 04:23:23;;;;;;;7.57;3.13;;;3.60;91.90;;;;;;5054845;28;20056;-73
2023/04/27 04:25:49;;;;;;;7.57;3.93;;;3.60;92.00;;;;;;5054146;28;20029;-73
2023/04/27 04:28:15;;;;;;;8.17;3.67;;;3.50;92.00;;;;;;5055695;28;20480;-74
2023/04/27 04:30:42;;;;;;;10.10;3.53;;;3.60;92.20;;;;;;5055654;28;20033;-73
2023/04/27 04:33:08;;;;;;;9.50;3.90;;;3.60;92.30;;;;;;5055562;28;20037;-74
2023/04/27 04:35:36;;;;;;;9.23;3.90;;;3.60;92.40;;;;;;5055564;28;20024;-74
2023/04/27 04:38:02;;;;;;;8.23;3.83;;;3.60;92.50;;;;;;5055611;28;21024;-73
2023/04/27 04:40:27;;;;;;;8.97;3.83;;;3.70;92.60;;;;;;5055567;28;20033;-73
2023/04/27 04:42:53;;;;;;;8.87;4.40;;;3.70;92.60;;;;;;5055545;28;20474;-73
2023/04/27 04:45:19;;;;;;;9.60;4.20;;;3.70;92.70;;;;;;5055532;28;20033;-74
2023/04/27 04:47:46;;;;;;;9.73;4.07;;;3.60;92.70;;;;;;5055486;28;20047;-73
2023/04/27 04:50:12;;;;;;;11.73;4.97;;;3.80;92.80;;;;;;5055299;28;20047;-73
2023/04/27 04:52:37;;;;;;;9.70;4.37;;;3.80;92.90;;;;;;5055049;28;20488;-73
2023/04/27 04:55:04;;;;;;;9.93;4.87;;;3.80;92.90;;;;;;5070555;28;20068;-73
2023/04/27 04:57:30;;;;;;;12.63;5.17;;;3.80;93.00;;;;;;5056908;28;20116;-74
2023/04/27 04:59:55;;;;;;;9.20;4.43;;;3.80;93.10;;;;;;5074650;28;20052;-73
2023/04/27 05:02:21;;;;;;;11.00;5.10;;;3.90;93.20;;;;;;5074688;28;20426;-73
2023/04/27 05:04:47;;;;;;;10.27;5.33;;;3.90;93.30;;;;;;5073664;28;20040;-74
2023/04/27 05:07:12;;;;;;;11.00;5.17;;;4.00;93.40;;;;;;5075020;28;20036;-74
2023/04/27 05:09:38;;;;;;;11.17;5.27;;;4.00;93.40;;;;;;5074921;28;20025;-74
2023/04/27 05:12:04;;;;;;;13.17;5.83;;;4.00;93.70;;;;;;5074810;28;20032;-74
2023/04/27 05:14:30;;;;;;;13.60;4.90;;;4.10;93.50;;;;;;5073337;28;20528;-73
2023/04/27 05:16:55;;;;;;;10.03;4.83;;;4.10;93.60;;;;;;5074354;28;20059;-73
2023/04/27 05:19:21;;;;;;;13.67;5.43;;;4.10;93.70;;;;;;5074747;28;20477;-74
2023/04/27 05:21:48;;;;;;;10.63;5.70;;;4.30;93.80;;;;;;5074371;28;20505;-73
2023/04/27 05:24:14;;;;;;;16.13;6.27;;;4.20;93.90;;;;;;5074666;28;20032;-73
2023/04/27 05:26:42;;;;;;;10.27;5.57;;;4.30;94.20;;;;;;5074672;28;20039;-74
2023/04/27 05:29:07;;;;;;;12.10;5.87;;;4.30;94.00;;;;;;5074510;28;20028;-73
2023/04/27 05:31:33;;;;;;;13.90;5.97;;;4.40;94.10;;;;;;5073359;28;20437;-74
2023/04/27 05:33:58;;;;;;;11.53;6.30;;;4.30;94.20;;;;;;5074333;28;20024;-74
2023/04/27 05:36:25;;;;;;;10.47;6.10;;;4.50;94.30;;;;;;5074464;28;20020;-73
2023/04/27 05:38:51;;;;;;;10.87;5.93;;;4.50;94.40;;;;;;5074377;28;20028;-74
2023/04/27 05:41:17;;;;;;;12.27;5.67;;;4.70;94.50;;;;;;5074358;28;20025;-74
2023/04/27 05:43:42;;;;;;;12.83;5.77;;;4.50;94.40;;;;;;5074308;28;20060;-73
2023/04/27 05:46:11;;;;;;;14.27;6.03;;;4.70;94.40;;;;;;5073043;28;20028;-73
2023/04/27 05:48:37;;;;;;;13.13;6.53;;;4.80;94.50;;;;;;5073592;28;20020;-74
2023/04/27 05:51:03;;;;;;;13.53;6.00;;;4.80;94.50;;;;;;5070964;28;20502;-73
2023/04/27 05:53:29;;;;;;;12.53;5.90;;;4.80;94.50;;;;;;5073346;28;20029;-74
2023/04/27 05:55:59;;;;;;;11.47;6.13;;;4.90;94.50;;;;;;5073866;28;20090;-83
2023/04/27 05:58:25;;;;;;;12.03;6.60;;;5.00;94.60;;;;;;5072693;28;20115;-84
2023/04/27 06:00:53;;;;;;;13.50;5.90;;;5.00;94.50;;;;;;5074182;28;20139;-82
2023/04/27 06:03:18;;;;;;;13.03;5.90;;;5.10;94.50;;;;;;5073961;28;20066;-82
2023/04/27 06:05:44;;;;;;;13.80;6.00;;;5.10;94.50;;;;;;5073913;28;20444;-83
2023/04/27 06:08:11;;;;;;;10.70;6.23;;;5.10;94.50;;;;;;5072761;28;20062;-83
2023/04/27 06:10:37;;;;;;;15.73;5.20;;;5.30;94.50;;;;;;5073414;28;20032;-83
2023/04/27 06:13:03;;;;;;;12.20;5.47;;;5.30;94.40;;;;;;5054628;28;20032;-83
2023/04/27 06:15:29;;;;;;;12.93;5.17;;;5.30;94.40;;;;;;5073453;28;20039;-83
2023/04/27 06:17:55;;;;;;;9.23;4.70;;;5.40;94.30;;;;;;5071745;28;20491;-83
2023/04/27 06:20:20;;;;;;;12.47;5.77;;;5.50;94.30;;;;;;5073162;28;20108;-83
2023/04/27 06:22:46;;;;;;;9.73;5.27;;;5.50;94.10;;;;;;5071946;28;20136;-83
2023/04/27 06:25:12;;;;;;;11.73;4.77;;;5.60;93.90;;;;;;5071868;28;20036;-82
2023/04/27 06:27:38;;;;;;;10.03;5.30;;;5.60;93.80;;;;;;5072441;28;20020;-83
2023/04/27 06:30:04;;;;;;;9.03;4.93;;;5.70;93.70;;;;;;5073600;28;20421;-83
2023/04/27 06:32:29;;;;;;;9.73;5.57;;;5.70;93.60;;;;;;5073428;28;20029;-83
2023/04/27 06:34:55;;;;;;;9.93;4.53;;;5.60;93.50;;;;;;5073455;28;20029;-83
2023/04/27 06:37:21;;;;;;;7.50;4.00;;;5.70;93.40;;;;;;5073672;28;20055;-83
2023/04/27 06:39:47;;;;;;;8.27;4.40;;;5.70;93.30;;;;;;5073776;28;20021;-84
2023/04/27 06:42:12;;;;;;;10.30;4.43;;;5.80;93.30;;;;;;5073553;28;20028;-84
2023/04/27 06:44:38;;;;;;;8.37;3.63;;;5.90;93.20;;;;;;5073331;28;20112;-83
2023/04/27 06:47:04;;;;;;;8.20;3.97;;;6.00;93.10;;;;;;5072087;28;20468;-84
2023/04/27 06:49:30;;;;;;;8.93;4.17;;;6.00;93.00;;;;;;5073450;28;20033;-84
2023/04/27 06:51:55;;;;;;;10.13;3.50;;;6.10;92.70;;;;;;5072080;28;20052;-84
2023/04/27 06:54:21;;;;;;;8.03;3.60;;;6.20;92.60;;;;;;5073472;28;20385;-83
2023/04/27 06:56:46;;;;;;;8.97;3.60;;;6.20;92.40;;;;;;5070559;28;20115;-83
2023/04/27 06:59:12;;;;;;;12.07;3.57;;;6.20;92.30;;;;;;5072203;28;20025;-81
2023/04/27 07:01:38;;;;;;;9.67;3.87;;;6.30;92.10;;;;;;5072646;28;20107;-82
2023/04/27 07:04:04;;;;;;;7.60;3.60;;;6.30;92.00;;;;;;5071472;28;20031;-83
2023/04/27 07:06:30;;;;;;;9.73;4.00;;;6.40;91.80;;;;;;5071072;28;20123;-83
2023/04/27 07:08:56;;;;;;;8.33;3.70;;;6.40;91.80;;;;;;5071535;28;20060;-84
2023/04/27 07:11:22;;;;;;;8.67;3.97;;;6.50;91.90;;;;;;5071345;28;20063;-83
2023/04/27 07:13:48;;;;;;;7.97;3.67;;;6.50;91.80;;;;;;5072635;28;21507;-83
2023/04/27 07:16:15;;;;;;;10.30;4.17;;;6.60;91.80;;;;;;5069891;28;20108;-82
2023/04/27 07:18:40;;;;;;;13.07;4.20;;;6.70;91.70;;;;;;5072510;28;20459;-82
2023/04/27 07:21:06;;;;;;;11.30;4.50;;;6.70;91.70;;;;;;5072434;28;20020;-82
2023/04/27 07:23:32;;;;;;;10.60;4.77;;;6.70;91.60;;;;;;5072509;28;20587;-81
2023/04/27 07:25:58;;;;;;;10.03;4.57;;;6.80;91.60;;;;;;5071262;28;20028;-83
2023/04/27 07:28:24;;;;;;;9.27;4.13;;;6.90;91.50;;;;;;5072649;28;20020;-82
2023/04/27 07:30:50;;;;;;;12.73;4.50;;;6.90;91.40;;;;;;5072636;28;20029;-84
2023/04/27 07:33:16;;;;;;;8.23;4.10;;;7.00;91.10;;;;;;5073232;28;20031;-85
2023/04/27 07:35:42;;;;;;;7.10;3.53;;;7.10;90.90;;;;;;5071197;28;20028;-86
2023/04/27 07:38:07;;;;;;;6.97;3.53;;;7.20;90.60;;;;;;5071245;28;20389;-85
2023/04/27 07:40:33;;;;;;;9.73;3.27;;;7.20;90.30;;;;;;5075046;28;20020;-84
2023/04/27 07:42:59;;;;;;;6.13;2.80;;;7.30;89.70;;;;;;5073968;28;20056;-85
2023/04/27 07:45:30;;;;;;;5.63;2.57;;;7.40;88.70;;;;;;5075586;28;20016;-88
2023/04/27 07:47:57;;;;;;;13.27;3.07;;;7.50;87.50;;;;;;5059451;28;20043;-85
2023/04/27 07:50:25;;;;;;;9.33;2.90;;;7.50;86.70;;;;;;5076811;28;20034;-85
2023/04/27 07:52:52;;;;;;;7.47;2.33;;;7.60;86.40;;;;;;5075590;28;20116;-84
2023/04/27 07:55:18;;;;;;;5.43;2.20;;;7.70;86.10;;;;;;5075745;28;20477;-87
2023/04/27 07:57:43;;;;;;;10.07;3.07;;;7.70;85.10;;;;;;5059082;28;20073;-87
2023/04/27 08:00:10;;;;;;;8.03;3.10;;;7.90;84.50;;;;;;5058982;28;20032;-88
2023/04/27 08:02:35;;;;;;;7.57;2.67;;;7.90;84.80;;;;;;5058922;28;20481;-89
2023/04/27 08:05:01;;;;;;;4.43;2.07;;;8.00;84.20;;;;;;5076384;28;20035;-87
2023/04/27 08:07:27;;;;;;;7.00;2.70;;;8.10;84.20;;;;;;5075745;28;20027;-87
2023/04/27 08:09:53;;;;;;;6.47;2.57;;;8.20;84.00;;;;;;5076739;28;20103;-88
2023/04/27 08:12:19;;;;;;;6.37;2.73;;;8.30;83.50;;;;;;5075983;28;20120;-85
2023/04/27 08:14:45;;;;;;;5.90;2.30;;;8.40;83.20;;;;;;5076429;28;20056;-86
2023/04/27 08:17:11;;;;;;;5.37;1.97;;;8.50;83.40;;;;;;5076760;28;20016;-86
2023/04/27 08:19:37;;;;;;;9.60;2.43;;;8.60;83.00;;;;;;5075067;28;20035;-86
2023/04/27 08:22:02;;;;;;;8.20;2.43;;;8.80;81.90;;;;;;5058079;28;20054;-87
2023/04/27 08:24:28;;;;;;;5.77;2.33;;;8.90;81.60;;;;;;5074849;28;20029;-85
2023/04/27 08:26:54;;;;;;;6.40;2.37;;;9.00;81.70;;;;;;5058806;28;20028;-85
2023/04/27 08:29:19;;;;;;;5.40;1.87;;;9.10;81.00;;;;;;5074726;28;20020;-87
2023/04/27 08:31:46;;;;;;;6.03;2.00;;;9.30;80.30;;;;;;5076407;28;20032;-85
2023/04/27 08:34:11;;;;;;;3.80;1.77;;;9.40;79.10;;;;;;5075197;28;20123;-86
2023/04/27 08:36:37;;;;;;;6.97;1.87;;;9.50;78.20;;;;;;5075333;28;20512;-87
2023/04/27 08:39:06;;;;;;;5.70;1.73;;;9.60;77.40;;;;;;5074963;28;20492;-87
2023/04/27 08:41:32;;;;;;;6.43;1.60;;;9.70;77.00;;;;;;5076591;28;20027;-86
2023/04/27 08:43:58;;;;;;;6.53;1.90;;;9.80;76.70;;;;;;5074040;28;20385;-85
2023/04/27 08:46:27;;;;;;;5.63;2.03;;;9.90;76.40;;;;;;5075390;28;20029;-84
2023/04/27 08:48:53;;;;;;;5.93;2.07;;;10.00;76.00;;;;;;5073799;28;20028;-88
2023/04/27 08:51:20;;;;;;;3.30;1.30;;;10.10;76.20;;;;;;5057554;28;20031;-86
2023/04/27 08:53:55;;;;;;;5.88;1.52;;;10.30;74.50;;;;;;5074305;28;20515;-85
2023/04/27 08:56:23;;;;;;;6.93;2.20;;;10.40;74.80;;;;;;5074987;28;20101;-90
2023/04/27 08:58:49;;;;;;;5.43;1.47;;;10.50;73.60;;;;;;5074543;28;20160;-85
2023/04/27 09:01:15;;;;;;;3.95;1.63;;;10.60;72.50;;;;;;5076081;28;20048;-86
2023/04/27 09:03:41;;;;;;;4.40;1.60;;;10.70;71.30;;;;;;5074439;28;20443;-87
2023/04/27 09:06:07;;;;;;;6.97;1.40;;;10.80;70.80;;;;;;5057493;28;20119;-87
2023/04/27 09:08:51;;;;;;;3.53;1.55;;;10.90;70.60;;;;;;5057594;28;20025;-87
2023/04/27 09:11:30;;;;;;;5.38;2.03;;;11.00;70.50;;;;;;5075412;28;20098;-87
2023/04/27 09:13:57;;;;;;;3.72;1.33;;;11.20;70.70;;;;;;5075330;28;20032;-85
2023/04/27 09:16:24;;;;;;;4.70;1.45;;;11.30;70.90;;;;;;5057240;28;20469;-87
2023/04/27 09:18:50;;;;;;;7.03;1.48;;;11.50;70.80;;;;;;5073875;28;20030;-85
2023/04/27 09:21:30;;;;;;;7.65;2.00;;;11.60;70.00;;;;;;5057235;28;20036;-87
2023/04/27 09:23:56;;;;;;;5.70;1.52;;;11.70;68.50;;;;;;5074581;28;20055;-85
2023/04/27 09:26:23;;;;;;;5.35;1.77;;;11.80;67.30;;;;;;5074105;28;20033;-86
2023/04/27 09:28:56;;;;;;;3.47;1.48;;;11.80;67.00;;;;;;5073978;28;20028;-85
2023/04/27 09:31:30;;;;;;;3.05;1.13;;;11.90;66.80;;;;;;5075127;28;20032;-86
2023/04/27 09:33:56;;;;;;;5.78;1.48;;;12.00;66.30;;;;;;5073709;28;20388;-86
2023/04/27 09:36:22;;;;;;;3.30;1.23;;;12.10;65.30;;;;;;5057198;28;20024;-85
2023/04/27 09:38:50;;;;;;;3.67;1.30;;;12.20;64.80;;;;;;5073631;28;20115;-86
2023/04/27 09:41:16;;;;;;;5.38;1.20;;;12.30;64.80;;;;;;5073995;28;20012;-86
2023/04/27 09:43:44;;;;;;;5.30;1.63;;;12.40;64.00;;;;;;5075490;28;20021;-86
2023/04/27 09:46:11;;;;;;;4.10;1.55;;;12.50;63.00;;;;;;5073257;28;20444;-89
2023/04/27 09:48:38;;;;;;;7.15;1.50;;;12.60;62.50;;;;;;5073631;28;20028;-86
2023/04/27 09:51:04;;;;;;;4.47;1.30;;;12.70;61.50;;;;;;5057007;28;20021;-88
2023/04/27 09:53:37;;;;;;;4.60;1.08;;;12.80;61.20;;;;;;5056228;28;20047;-87
2023/04/27 09:56:21;;;;;;;5.22;1.33;;;12.90;61.40;;;;;;5073994;28;20031;-88
2023/04/27 09:59:11;;;;;;;3.80;1.40;;;13.00;60.20;;;;;;5073738;28;20020;-88
2023/04/27 10:01:50;;;;;;;5.47;1.55;;;13.10;60.40;;;;;;5075152;28;20021;-87
2023/04/27 10:04:36;;;;;;;5.15;1.77;;;13.20;59.60;;;;;;5073147;28;20021;-79
2023/04/27 10:07:04;;;;;;;7.63;1.83;;;13.30;59.30;;;;;;5073065;28;20028;-77
2023/04/27 10:09:46;;;;;;;3.83;1.70;;;13.30;59.20;;;;;;5074029;28;20593;-76
2023/04/27 10:12:41;;;;;;;5.05;1.85;;;13.50;59.30;;;;;;5072945;28;20033;-78
2023/04/27 10:15:15;;;;;;;5.53;1.73;;;13.70;58.80;;;;;;5063365;28;20036;-79
2023/04/27 10:17:49;;;;;;;5.03;1.80;;;13.80;57.80;;;;;;5055668;28;20737;-80
2023/04/27 10:20:16;;;;;;;2.97;1.30;;;14.00;57.70;;;;;;5073766;28;20025;-77
2023/04/27 10:22:51;;;;;;;4.07;1.40;;;14.00;56.60;;;;;;5073411;28;20094;-77
2023/04/27 10:25:22;;;;;;;4.95;1.20;;;14.30;56.80;;;;;;5073601;28;20059;-77
2023/04/27 10:27:49;;;;;;;2.15;0.90;;;14.60;56.90;;;;;;5072922;28;20063;-78
2023/04/27 10:30:17;;;;;;;4.05;1.40;;;14.90;57.50;;;;;;5071491;28;20082;-77
2023/04/27 10:33:02;;;;;;;2.67;1.20;;;15.40;55.50;;;;;;5072622;28;20441;-81
2023/04/27 10:36:01;;;;;;;3.33;1.40;;;15.70;55.20;;;;;;5072196;28;20079;-82
2023/04/27 10:38:28;;;;;;;5.20;1.65;;;16.20;54.20;;;;;;5032763;28;20037;-77
2023/04/27 10:40:56;;;;;;;4.80;1.42;;;16.60;54.00;;;;;;5054030;28;20130;-77
2023/04/27 10:43:27;;;;;;;3.97;1.27;;;17.00;54.20;;;;;;5053685;28;20416;-78
2023/04/27 10:45:53;;;;;;;2.95;1.13;;;17.60;54.30;;;;;;5052522;28;20469;-79
2023/04/27 10:48:19;;;;;;;4.28;1.52;;;18.10;54.20;;;;;;5052272;28;20021;-81
2023/04/27 10:50:45;;;;;;;2.83;1.38;;;18.60;51.70;;;;;;5053969;28;20021;-78
2023/04/27 10:53:11;;;;;;;3.08;1.00;;;18.90;51.10;;;;;;5053704;28;20024;-78
2023/04/27 10:55:37;;;;;;;4.63;1.55;;;19.40;50.70;;;;;;5052003;28;20516;-77
2023/04/27 10:58:03;;;;;;;5.60;1.45;;;19.80;49.60;;;;;;5053350;28;20484;-82
2023/04/27 11:00:29;;;;;;;3.25;1.10;;;20.10;48.40;;;;;;5053416;28;20033;-78
2023/04/27 11:02:56;;;;;;;4.13;1.02;;;20.40;48.20;;;;;;5053622;28;20028;-78
2023/04/27 11:05:24;;;;;;;2.50;1.30;;;20.80;48.30;;;;;;5053399;28;20163;-77
2023/04/27 11:07:50;;;;;;;3.03;1.40;;;21.20;47.50;;;;;;5065578;28;20054;-77
2023/04/27 11:10:20;;;;;;;3.67;1.15;;;21.60;46.60;;;;;;5072780;28;20035;-79
2023/04/27 11:12:46;;;;;;;2.83;1.23;;;22.20;45.80;;;;;;5070509;28;20028;-80
2023/04/27 11:15:13;;;;;;;4.10;1.20;;;22.50;44.50;;;;;;5072036;28;20029;-78
2023/04/27 11:17:39;;;;;;;3.20;1.42;;;22.90;43.10;;;;;;5072817;28;20464;-78
2023/04/27 11:20:08;;;;;;;4.25;1.20;;;23.20;43.10;;;;;;5073132;28;20043;-81
2023/04/27 11:22:43;;;;;;;3.17;1.23;;;23.60;42.60;;;;;;5073191;28;20370;-79
2023/04/27 11:25:09;;;;;;;2.83;0.80;;;24.00;42.60;;;;;;5073272;28;20043;-77
2023/04/27 11:27:38;;;;;;;2.60;1.23;;;24.50;42.70;;;;;;5073208;28;20477;-78
2023/04/27 11:30:17;;;;;;;2.85;1.23;;;24.80;41.40;;;;;;5073273;28;20028;-78
2023/04/27 11:32:43;;;;;;;3.58;1.00;;;25.20;40.60;;;;;;5073394;28;20078;-77
2023/04/27 11:35:09;;;;;;;3.05;1.13;;;25.50;40.30;;;;;;5073093;28;20446;-77
2023/04/27 11:37:35;;;;;;;2.88;1.02;;;25.40;39.90;;;;;;5073309;28;20016;-76
2023/04/27 11:40:00;;;;;;;4.80;0.95;;;25.20;39.50;;;;;;5073772;28;20021;-78
2023/04/27 11:42:27;;;;;;;4.07;1.10;;;25.10;39.20;;;;;;5072032;28;20067;-77
2023/04/27 11:44:58;;;;;;;3.13;1.00;;;24.90;38.60;;;;;;5071565;28;20469;-76
2023/04/27 11:47:26;;;;;;;3.78;1.05;;;24.70;38.40;;;;;;5073244;28;20040;-80
2023/04/27 11:49:56;;;;;;;2.67;1.20;;;24.50;38.30;;;;;;5071301;28;20055;-75
2023/04/27 11:52:27;;;;;;;2.15;1.13;;;24.20;38.20;;;;;;5072937;28;20025;-75
2023/04/27 11:54:55;;;;;;;2.08;1.20;;;24.00;38.00;;;;;;5072315;28;20465;-77
2023/04/27 11:57:25;;;;;;;3.25;1.40;;;23.80;38.20;;;;;;5072215;28;20036;-74
2023/04/27 11:59:52;;;;;;;3.08;1.42;;;23.60;38.50;;;;;;5072492;28;20036;-75
2023/04/27 12:02:20;;;;;;;4.07;1.48;;;23.50;38.60;;;;;;5071094;28;20093;-75
2023/04/27 12:04:47;;;;;;;3.08;1.00;;;23.60;38.50;;;;;;5072474;28;20159;-74
2023/04/27 12:07:13;;;;;;;2.28;1.27;;;23.60;38.20;;;;;;5072679;28;20025;-75
2023/04/27 12:09:39;;;;;;;3.38;1.40;;;23.60;38.10;;;;;;5072241;28;20427;-75
2023/04/27 12:12:05;;;;;;;4.30;1.60;;;23.60;38.20;;;;;;5066906;28;20110;-75
2023/04/27 12:14:31;;;;;;;2.85;1.08;;;23.70;38.10;;;;;;5062887;28;20052;-75
2023/04/27 12:16:56;;;;;;;4.03;1.40;;;23.80;38.10;;;;;;5071950;28;20052;-80
2023/04/27 12:19:25;;;;;;;4.43;1.83;;;23.80;38.00;;;;;;5071540;28;20024;-76
2023/04/27 12:21:52;;;;;;;2.95;1.38;;;23.90;37.90;;;;;;5070782;28;20448;-76
2023/04/27 12:24:18;;;;;;;3.70;1.40;;;23.90;37.90;;;;;;5071781;28;20124;-75
2023/04/27 12:26:45;;;;;;;3.75;1.30;;;24.00;37.70;;;;;;5073444;28;20038;-74
2023/04/27 12:29:11;;;;;;;3.10;1.38;;;24.00;37.60;;;;;;5074445;28;20432;-75
2023/04/27 12:31:37;;;;;;;3.25;1.10;;;24.10;37.30;;;;;;5075950;28;20103;-76
2023/04/27 12:34:02;;;;;;;3.25;1.48;;;24.10;37.10;;;;;;5075664;28;20132;-76
2023/04/27 12:36:28;;;;;;;3.10;1.25;;;24.20;37.20;;;;;;5075705;28;20029;-76
2023/04/27 12:39:10;;;;;;;2.95;1.38;;;24.30;37.30;;;;;;5075493;28;20086;-76
2023/04/27 12:41:36;;;;;;;4.55;1.42;;;24.40;37.00;;;;;;5071886;28;20016;-76
2023/04/27 12:44:02;;;;;;;2.17;1.20;;;24.60;36.90;;;;;;5073015;28;20028;-75
2023/04/27 12:46:27;;;;;;;3.90;1.40;;;24.60;36.60;;;;;;5074357;28;20070;-76
2023/04/27 12:48:55;;;;;;;3.75;1.35;;;24.70;36.60;;;;;;5074253;28;20029;-76
2023/04/27 12:51:21;;;;;;;3.65;1.35;;;24.80;36.50;;;;;;5073492;28;20116;-75